createdAt,value
2023-03-04T00:00:01.819Z,14
2023-03-04T00:01:01.509Z,14
2023-03-04T00:02:01.652Z,14
2023-03-04T00:03:01.718Z,14
2023-03-04T00:04:01.533Z,14
2023-03-04T00:05:01.850Z,14
2023-03-04T00:06:01.912Z,14
2023-03-04T00:07:02.084Z,14
2023-03-04T00:08:02.041Z,14
2023-03-04T00:09:02.185Z,13
2023-03-04T00:10:02.563Z,14
2023-03-04T00:11:02.040Z,14
2023-03-04T00:12:02.698Z,14
2023-03-04T00:13:02.649Z,14
2023-03-04T00:14:02.825Z,14
2023-03-04T00:15:02.224Z,14
2023-03-04T00:16:02.400Z,14
2023-03-04T00:17:01.677Z,14
2023-03-04T00:18:01.710Z,14
2023-03-04T00:19:02.109Z,14
2023-03-04T00:20:02.195Z,14
2023-03-04T00:21:01.622Z,14
2023-03-04T00:22:02.206Z,14
2023-03-04T00:23:02.658Z,14
2023-03-04T00:24:02.342Z,14
2023-03-04T00:25:02.813Z,14
2023-03-04T00:26:02.718Z,14
2023-03-04T00:27:01.513Z,14
2023-03-04T00:28:01.846Z,14
2023-03-04T00:29:01.951Z,14
2023-03-04T00:30:01.929Z,14
2023-03-04T00:31:01.787Z,14
2023-03-04T00:32:01.788Z,14
2023-03-04T00:33:02.217Z,14
2023-03-04T00:34:01.586Z,14
2023-03-04T00:35:02.234Z,14
2023-03-04T00:36:01.767Z,14
2023-03-04T00:37:02.403Z,14
2023-03-04T00:38:02.754Z,14
2023-03-04T00:39:02.160Z,14
2023-03-04T00:40:02.339Z,14
2023-03-04T00:41:02.185Z,14
2023-03-04T00:42:01.804Z,14
2023-03-04T00:43:01.795Z,14
2023-03-04T00:44:02.144Z,14
2023-03-04T00:45:02.396Z,15
2023-03-04T00:46:01.881Z,14
2023-03-04T00:47:01.330Z,14
2023-03-04T00:48:01.410Z,14
2023-03-04T00:49:01.677Z,14
2023-03-04T00:50:01.493Z,14
2023-03-04T00:51:01.292Z,14
2023-03-04T00:52:01.598Z,14
2023-03-04T00:53:01.977Z,14
2023-03-04T00:54:01.450Z,14
2023-03-04T00:55:01.712Z,14
2023-03-04T00:56:01.674Z,14
2023-03-04T00:57:02.132Z,14
2023-03-04T00:58:02.382Z,14
2023-03-04T00:59:02.309Z,14
2023-03-04T01:00:02.544Z,14
2023-03-04T01:01:02.680Z,14
2023-03-04T01:02:03.561Z,14
2023-03-04T01:03:03.300Z,14
2023-03-04T01:04:03.808Z,14
2023-03-04T01:05:03.418Z,14
2023-03-04T01:06:03.806Z,14
2023-03-04T01:07:02.607Z,14
2023-03-04T01:08:03.029Z,14
2023-03-04T01:09:02.936Z,14
2023-03-04T01:10:02.724Z,14
2023-03-04T01:11:02.846Z,14
2023-03-04T01:12:03.796Z,14
2023-03-04T01:13:03.454Z,14
2023-03-04T01:14:03.236Z,14
2023-03-04T01:15:03.423Z,14
2023-03-04T01:16:03.752Z,14
2023-03-04T01:17:03.188Z,14
2023-03-04T01:18:02.842Z,14
2023-03-04T01:19:02.975Z,14
2023-03-04T01:20:02.705Z,14
2023-03-04T01:21:03.255Z,14
2023-03-04T01:22:02.914Z,14
2023-03-04T01:23:02.839Z,14
2023-03-04T01:24:03.052Z,14
2023-03-04T01:25:02.669Z,14
2023-03-04T01:26:02.827Z,13
2023-03-04T01:27:02.832Z,14
2023-03-04T01:28:02.822Z,14
2023-03-04T01:29:02.905Z,14
2023-03-04T01:30:02.742Z,14
2023-03-04T01:31:03.008Z,14
2023-03-04T01:32:02.675Z,14
2023-03-04T01:33:02.453Z,14
2023-03-04T01:34:02.614Z,14
2023-03-04T01:35:02.357Z,14
2023-03-04T01:36:02.447Z,14
2023-03-04T01:37:02.244Z,14
2023-03-04T01:38:02.683Z,14
2023-03-04T01:39:02.379Z,14
2023-03-04T01:40:02.122Z,13
2023-03-04T01:41:02.565Z,14
2023-03-04T01:42:02.558Z,14
2023-03-04T01:43:02.873Z,14
2023-03-04T01:44:02.716Z,14
2023-03-04T01:45:02.848Z,14
2023-03-04T01:46:02.910Z,14
2023-03-04T01:47:02.479Z,13
2023-03-04T01:48:02.877Z,14
2023-03-04T01:49:02.827Z,14
2023-03-04T01:50:02.719Z,14
2023-03-04T01:51:02.668Z,13
2023-03-04T01:52:03.520Z,14
2023-03-04T01:53:03.186Z,14
2023-03-04T01:54:02.859Z,14
2023-03-04T01:55:02.972Z,14
2023-03-04T01:56:03.182Z,14
2023-03-04T01:57:02.652Z,14
2023-03-04T01:58:02.547Z,14
2023-03-04T01:59:02.499Z,13
2023-03-04T02:00:02.616Z,14
2023-03-04T02:01:02.585Z,13
2023-03-04T02:02:02.518Z,13
2023-03-04T02:03:02.546Z,14
2023-03-04T02:04:03.178Z,13
2023-03-04T02:05:03.095Z,13
2023-03-04T02:06:02.486Z,13
2023-03-04T02:07:02.916Z,14
2023-03-04T02:08:03.369Z,14
2023-03-04T02:09:02.908Z,13
2023-03-04T02:10:03.208Z,14
2023-03-04T02:11:02.947Z,13
2023-03-04T02:12:03.398Z,13
2023-03-04T02:13:02.930Z,14
2023-03-04T02:14:03.417Z,13
2023-03-04T02:15:03.055Z,13
2023-03-04T02:16:03.327Z,13
2023-03-04T02:17:03.357Z,14
2023-03-04T02:18:03.429Z,13
2023-03-04T02:19:03.397Z,14
2023-03-04T02:20:02.979Z,13
2023-03-04T02:21:03.266Z,14
2023-03-04T02:22:03.029Z,13
2023-03-04T02:23:02.693Z,14
2023-03-04T02:24:02.643Z,14
2023-03-04T02:25:02.627Z,14
2023-03-04T02:26:03.275Z,13
2023-03-04T02:27:03.071Z,14
2023-03-04T02:28:03.668Z,14
2023-03-04T02:29:03.134Z,13
2023-03-04T02:30:03.424Z,14
2023-03-04T02:31:03.114Z,13
2023-03-04T02:32:02.491Z,13
2023-03-04T02:33:02.640Z,14
2023-03-04T02:34:02.367Z,13
2023-03-04T02:35:02.297Z,13
2023-03-04T02:36:02.532Z,13
2023-03-04T02:37:03.204Z,13
2023-03-04T02:38:02.735Z,14
2023-03-04T02:39:03.061Z,14
2023-03-04T02:40:03.137Z,13
2023-03-04T02:41:02.883Z,13
2023-03-04T02:42:03.642Z,13
2023-03-04T02:43:03.134Z,13
2023-03-04T02:44:03.555Z,14
2023-03-04T02:45:03.314Z,14
2023-03-04T02:46:03.081Z,13
2023-03-04T02:47:02.269Z,13
2023-03-04T02:48:02.560Z,13
2023-03-04T02:49:02.319Z,14
2023-03-04T02:50:02.468Z,13
2023-03-04T02:51:02.178Z,14
2023-03-04T02:52:02.599Z,13
2023-03-04T02:53:02.647Z,13
2023-03-04T02:54:02.815Z,13
2023-03-04T02:55:02.509Z,14
2023-03-04T02:56:03.108Z,13
2023-03-04T02:57:02.839Z,13
2023-03-04T02:58:02.526Z,14
2023-03-04T02:59:02.586Z,14
2023-03-04T03:00:02.862Z,13
2023-03-04T03:01:02.489Z,13
2023-03-04T03:02:03.288Z,14
2023-03-04T03:03:02.900Z,13
2023-03-04T03:04:02.692Z,13
2023-03-04T03:05:02.865Z,14
2023-03-04T03:06:03.083Z,14
2023-03-04T03:07:02.658Z,13
2023-03-04T03:08:02.387Z,13
2023-03-04T03:09:02.576Z,14
2023-03-04T03:10:02.517Z,14
2023-03-04T03:11:02.635Z,13
2023-03-04T03:12:02.237Z,13
2023-03-04T03:13:02.690Z,14
2023-03-04T03:14:02.328Z,14
2023-03-04T03:15:02.128Z,13
2023-03-04T03:16:02.451Z,14
2023-03-04T03:17:03.040Z,13
2023-03-04T03:18:02.772Z,14
2023-03-04T03:19:02.612Z,14
2023-03-04T03:20:03.072Z,13
2023-03-04T03:21:02.694Z,13
2023-03-04T03:22:02.565Z,13
2023-03-04T03:23:02.712Z,14
2023-03-04T03:24:02.414Z,14
2023-03-04T03:25:02.671Z,13
2023-03-04T03:26:02.117Z,13
2023-03-04T03:27:02.720Z,13
2023-03-04T03:28:02.633Z,14
2023-03-04T03:29:02.450Z,13
2023-03-04T03:30:02.713Z,14
2023-03-04T03:31:03.097Z,14
2023-03-04T03:32:02.220Z,13
2023-03-04T03:33:01.978Z,13
2023-03-04T03:34:01.857Z,14
2023-03-04T03:35:01.691Z,14
2023-03-04T03:36:01.662Z,13
2023-03-04T03:37:02.468Z,14
2023-03-04T03:38:02.109Z,14
2023-03-04T03:39:02.232Z,13
2023-03-04T03:40:02.425Z,14
2023-03-04T03:41:02.118Z,14
2023-03-04T03:42:02.130Z,13
2023-03-04T03:43:01.938Z,13
2023-03-04T03:44:02.208Z,13
2023-03-04T03:45:02.028Z,14
2023-03-04T03:46:01.677Z,13
2023-03-04T03:47:02.290Z,13
2023-03-04T03:48:01.938Z,13
2023-03-04T03:49:02.062Z,14
2023-03-04T03:50:02.286Z,14
2023-03-04T03:51:02.340Z,13
2023-03-04T03:52:01.671Z,14
2023-03-04T03:53:01.567Z,14
2023-03-04T03:54:01.769Z,13
2023-03-04T03:55:02.288Z,13
2023-03-04T03:56:01.953Z,14
2023-03-04T03:57:01.725Z,14
2023-03-04T03:58:02.031Z,13
2023-03-04T03:59:01.905Z,13
2023-03-04T04:00:02.046Z,13
2023-03-04T04:01:01.810Z,14
2023-03-04T04:02:03.010Z,13
2023-03-04T04:03:02.800Z,13
2023-03-04T04:04:02.416Z,13
2023-03-04T04:05:02.385Z,14
2023-03-04T04:06:02.542Z,14
2023-03-04T04:07:03.028Z,13
2023-03-04T04:08:02.810Z,13
2023-03-04T04:09:02.565Z,13
2023-03-04T04:10:03.078Z,14
2023-03-04T04:11:02.549Z,13
2023-03-04T04:12:03.101Z,14
2023-03-04T04:13:02.663Z,14
2023-03-04T04:14:02.663Z,13
2023-03-04T04:15:02.561Z,14
2023-03-04T04:16:03.158Z,13
2023-03-04T04:17:02.380Z,13
2023-03-04T04:18:02.161Z,13
2023-03-04T04:19:02.145Z,13
2023-03-04T04:20:02.010Z,13
2023-03-04T04:21:02.260Z,14
2023-03-04T04:22:02.910Z,14
2023-03-04T04:23:02.706Z,14
2023-03-04T04:24:02.776Z,14
2023-03-04T04:25:02.608Z,13
2023-03-04T04:26:02.961Z,14
2023-03-04T04:27:02.434Z,13
2023-03-04T04:28:02.801Z,13
2023-03-04T04:29:02.549Z,13
2023-03-04T04:30:02.539Z,14
2023-03-04T04:31:02.602Z,13
2023-03-04T04:32:02.733Z,14
2023-03-04T04:33:02.719Z,14
2023-03-04T04:34:02.581Z,13
2023-03-04T04:35:02.912Z,14
2023-03-04T04:36:02.814Z,13
2023-03-04T04:37:02.113Z,13
2023-03-04T04:38:02.504Z,13
2023-03-04T04:39:02.507Z,14
2023-03-04T04:40:02.169Z,13
2023-03-04T04:41:02.412Z,14
2023-03-04T04:42:02.218Z,13
2023-03-04T04:43:02.800Z,14
2023-03-04T04:44:02.460Z,14
2023-03-04T04:45:02.283Z,14
2023-03-04T04:46:02.796Z,14
2023-03-04T04:47:01.556Z,13
2023-03-04T04:48:01.971Z,13
2023-03-04T04:49:01.889Z,14
2023-03-04T04:50:01.876Z,13
2023-03-04T04:51:01.831Z,13
2023-03-04T04:52:02.240Z,13
2023-03-04T04:53:01.990Z,14
2023-03-04T04:54:02.180Z,13
2023-03-04T04:55:01.652Z,14
2023-03-04T04:56:01.967Z,14
2023-03-04T04:57:02.432Z,13
2023-03-04T04:58:02.339Z,13
2023-03-04T04:59:02.574Z,13
2023-03-04T05:00:02.756Z,13
2023-03-04T05:01:02.882Z,14
2023-03-04T05:02:01.643Z,14
2023-03-04T05:03:01.648Z,13
2023-03-04T05:04:01.800Z,13
2023-03-04T05:05:01.927Z,14
2023-03-04T05:06:01.916Z,13
2023-03-04T05:07:01.841Z,13
2023-03-04T05:08:02.008Z,13
2023-03-04T05:09:02.197Z,13
2023-03-04T05:10:01.912Z,14
2023-03-04T05:11:01.906Z,13
2023-03-04T05:12:02.571Z,14
2023-03-04T05:13:02.708Z,13
2023-03-04T05:14:02.417Z,14
2023-03-04T05:15:02.275Z,13
2023-03-04T05:16:02.667Z,13
2023-03-04T05:17:01.736Z,13
2023-03-04T05:18:01.805Z,14
2023-03-04T05:19:02.276Z,13
2023-03-04T05:20:02.008Z,13
2023-03-04T05:21:02.174Z,13
2023-03-04T05:22:02.270Z,14
2023-03-04T05:23:02.014Z,13
2023-03-04T05:24:02.031Z,13
2023-03-04T05:25:01.858Z,14
2023-03-04T05:26:01.810Z,14
2023-03-04T05:27:02.005Z,14
2023-03-04T05:28:01.984Z,14
2023-03-04T05:29:02.043Z,13
2023-03-04T05:30:01.764Z,13
2023-03-04T05:31:02.124Z,14
2023-03-04T05:32:02.431Z,14
2023-03-04T05:33:02.443Z,13
2023-03-04T05:34:02.503Z,14
2023-03-04T05:35:02.644Z,13
2023-03-04T05:36:02.162Z,13
2023-03-04T05:37:01.709Z,14
2023-03-04T05:38:01.973Z,14
2023-03-04T05:39:01.916Z,13
2023-03-04T05:40:02.047Z,14
2023-03-04T05:41:02.173Z,13
2023-03-04T05:42:02.216Z,14
2023-03-04T05:43:02.051Z,14
2023-03-04T05:44:01.931Z,14
2023-03-04T05:45:02.058Z,14
2023-03-04T05:46:02.199Z,14
2023-03-04T05:47:02.355Z,14
2023-03-04T05:48:02.093Z,13
2023-03-04T05:49:02.309Z,14
2023-03-04T05:50:02.445Z,14
2023-03-04T05:51:02.326Z,14
2023-03-04T05:52:01.913Z,14
2023-03-04T05:53:01.899Z,13
2023-03-04T05:54:01.628Z,14
2023-03-04T05:55:01.332Z,14
2023-03-04T05:56:01.570Z,13
2023-03-04T05:57:02.062Z,13
2023-03-04T05:58:01.949Z,14
2023-03-04T05:59:02.200Z,14
2023-03-04T06:00:01.683Z,14
2023-03-04T06:01:02.032Z,13
2023-03-04T06:02:02.553Z,14
2023-03-04T06:03:02.840Z,13
2023-03-04T06:04:02.369Z,14
2023-03-04T06:05:02.471Z,14
2023-03-04T06:06:02.890Z,13
2023-03-04T06:07:03.309Z,14
2023-03-04T06:08:03.258Z,14
2023-03-04T06:09:03.058Z,13
2023-03-04T06:10:03.254Z,14
2023-03-04T06:11:03.392Z,14
2023-03-04T06:12:02.636Z,14
2023-03-04T06:13:02.416Z,14
2023-03-04T06:14:02.517Z,14
2023-03-04T06:15:02.513Z,14
2023-03-04T06:16:02.470Z,14
2023-03-04T06:17:02.972Z,14
2023-03-04T06:18:03.322Z,14
2023-03-04T06:19:03.014Z,14
2023-03-04T06:20:03.193Z,14
2023-03-04T06:21:02.810Z,14
2023-03-04T06:22:01.817Z,14
2023-03-04T06:23:02.394Z,14
2023-03-04T06:24:01.934Z,14
2023-03-04T06:25:02.478Z,14
2023-03-04T06:26:02.092Z,14
2023-03-04T06:27:02.585Z,14
2023-03-04T06:28:02.334Z,15
2023-03-04T06:29:02.454Z,14
2023-03-04T06:30:02.686Z,14
2023-03-04T06:31:02.753Z,14
2023-03-04T06:32:02.691Z,14
2023-03-04T06:33:02.692Z,14
2023-03-04T06:34:03.051Z,14
2023-03-04T06:35:02.414Z,14
2023-03-04T06:36:03.051Z,14
2023-03-04T06:37:02.055Z,14
2023-03-04T06:38:02.187Z,14
2023-03-04T06:39:01.754Z,14
2023-03-04T06:40:01.881Z,15
2023-03-04T06:41:02.040Z,15
2023-03-04T06:42:02.316Z,15
2023-03-04T06:43:02.231Z,15
2023-03-04T06:44:01.960Z,14
2023-03-04T06:45:01.922Z,15
2023-03-04T06:46:02.352Z,14
2023-03-04T06:47:02.399Z,15
2023-03-04T06:48:02.433Z,15
2023-03-04T06:49:02.591Z,14
2023-03-04T06:50:02.681Z,14
2023-03-04T06:51:02.579Z,14
2023-03-04T06:52:02.340Z,15
2023-03-04T06:53:02.459Z,15
2023-03-04T06:54:02.746Z,14
2023-03-04T06:55:02.440Z,14
2023-03-04T06:56:02.881Z,15
2023-03-04T06:57:02.293Z,14
2023-03-04T06:58:02.335Z,15
2023-03-04T06:59:02.240Z,14
2023-03-04T07:00:01.826Z,15
2023-03-04T07:01:02.350Z,14
2023-03-04T07:02:02.114Z,15
2023-03-04T07:03:02.039Z,14
2023-03-04T07:04:02.069Z,14
2023-03-04T07:05:02.181Z,14
2023-03-04T07:06:02.455Z,14
2023-03-04T07:07:02.421Z,14
2023-03-04T07:08:02.669Z,15
2023-03-04T07:09:02.605Z,14
2023-03-04T07:10:02.576Z,14
2023-03-04T07:11:02.358Z,14
2023-03-04T07:12:01.795Z,14
2023-03-04T07:13:01.804Z,15
2023-03-04T07:14:02.303Z,14
2023-03-04T07:15:01.966Z,14
2023-03-04T07:16:02.074Z,14
2023-03-04T07:17:02.402Z,14
2023-03-04T07:18:02.447Z,14
2023-03-04T07:19:02.103Z,14
2023-03-04T07:20:02.186Z,14
2023-03-04T07:21:01.823Z,14
2023-03-04T07:22:02.086Z,14
2023-03-04T07:23:02.022Z,14
2023-03-04T07:24:02.418Z,15
2023-03-04T07:25:02.479Z,14
2023-03-04T07:26:01.842Z,15
2023-03-04T07:27:02.363Z,15
2023-03-04T07:28:02.269Z,14
2023-03-04T07:29:02.202Z,15
2023-03-04T07:30:02.183Z,15
2023-03-04T07:31:02.327Z,14
2023-03-04T07:32:02.695Z,14
2023-03-04T07:33:02.397Z,14
2023-03-04T07:34:02.238Z,15
2023-03-04T07:35:02.609Z,15
2023-03-04T07:36:02.252Z,14
2023-03-04T07:37:01.958Z,14
2023-03-04T07:38:01.868Z,14
2023-03-04T07:39:02.209Z,14
2023-03-04T07:40:01.748Z,14
2023-03-04T07:41:01.877Z,15
2023-03-04T07:42:03.008Z,14
2023-03-04T07:43:02.928Z,14
2023-03-04T07:44:02.332Z,15
2023-03-04T07:45:02.555Z,15
2023-03-04T07:46:02.870Z,15
2023-03-04T07:47:01.705Z,14
2023-03-04T07:48:01.568Z,15
2023-03-04T07:49:01.422Z,15
2023-03-04T07:50:01.616Z,15
2023-03-04T07:51:01.649Z,15
2023-03-04T07:52:02.476Z,15
2023-03-04T07:53:02.386Z,14
2023-03-04T07:54:02.218Z,15
2023-03-04T07:55:01.789Z,15
2023-03-04T07:56:02.790Z,15
2023-03-04T07:57:02.020Z,15
2023-03-04T07:58:02.465Z,14
2023-03-04T07:59:02.194Z,15
2023-03-04T08:00:02.469Z,14
2023-03-04T08:01:02.420Z,15
2023-03-04T08:02:03.537Z,15
2023-03-04T08:03:03.572Z,15
2023-03-04T08:04:03.541Z,15
2023-03-04T08:05:03.297Z,15
2023-03-04T08:06:03.188Z,15
2023-03-04T08:07:03.762Z,15
2023-03-04T08:08:03.736Z,15
2023-03-04T08:09:03.647Z,15
2023-03-04T08:10:03.258Z,15
2023-03-04T08:11:03.367Z,15
2023-03-04T08:12:02.676Z,15
2023-03-04T08:13:02.688Z,16
2023-03-04T08:14:03.096Z,15
2023-03-04T08:15:02.832Z,15
2023-03-04T08:16:02.857Z,15
2023-03-04T08:17:03.483Z,15
2023-03-04T08:18:03.653Z,16
2023-03-04T08:19:03.356Z,15
2023-03-04T08:20:03.657Z,16
2023-03-04T08:21:03.408Z,15
2023-03-04T08:22:02.527Z,15
2023-03-04T08:23:02.844Z,15
2023-03-04T08:24:02.385Z,15
2023-03-04T08:25:02.363Z,15
2023-03-04T08:26:02.939Z,15
2023-03-04T08:27:03.073Z,15
2023-03-04T08:28:02.662Z,15
2023-03-04T08:29:02.727Z,15
2023-03-04T08:30:02.938Z,15
2023-03-04T08:31:02.664Z,15
2023-03-04T08:32:02.806Z,15
2023-03-04T08:33:03.206Z,15
2023-03-04T08:34:03.290Z,16
2023-03-04T08:35:03.241Z,15
2023-03-04T08:36:03.027Z,15
2023-03-04T08:37:02.650Z,15
2023-03-04T08:38:02.656Z,15
2023-03-04T08:39:02.803Z,15
2023-03-04T08:40:02.655Z,15
2023-03-04T08:41:02.469Z,15
2023-03-04T08:42:02.775Z,15
2023-03-04T08:43:02.763Z,15
2023-03-04T08:44:03.307Z,16
2023-03-04T08:45:02.852Z,15
2023-03-04T08:46:03.216Z,15
2023-03-04T08:47:02.456Z,15
2023-03-04T08:48:02.377Z,15
2023-03-04T08:49:02.702Z,15
2023-03-04T08:50:02.295Z,15
2023-03-04T08:51:02.233Z,15
2023-03-04T08:52:02.834Z,15
2023-03-04T08:53:02.685Z,15
2023-03-04T08:54:02.661Z,15
2023-03-04T08:55:02.329Z,15
2023-03-04T08:56:02.325Z,15
2023-03-04T08:57:02.889Z,15
2023-03-04T08:58:02.645Z,15
2023-03-04T08:59:02.851Z,15
2023-03-04T09:00:02.978Z,15
2023-03-04T09:01:02.682Z,15
2023-03-04T09:02:03.132Z,15
2023-03-04T09:03:03.173Z,15
2023-03-04T09:04:02.943Z,15
2023-03-04T09:05:02.815Z,15
2023-03-04T09:06:03.104Z,15
2023-03-04T09:07:02.683Z,15
2023-03-04T09:08:02.456Z,14
2023-03-04T09:09:02.283Z,15
2023-03-04T09:10:02.760Z,15
2023-03-04T09:11:02.466Z,15
2023-03-04T09:12:03.191Z,15
2023-03-04T09:13:02.798Z,15
2023-03-04T09:14:02.835Z,15
2023-03-04T09:15:11.053Z,15
2023-03-04T09:16:02.803Z,15
2023-03-04T09:17:02.175Z,15
2023-03-04T09:18:02.022Z,15
2023-03-04T09:19:01.946Z,15
2023-03-04T09:20:04.413Z,15
2023-03-04T09:21:02.521Z,15
2023-03-04T09:22:02.532Z,15
2023-03-04T09:23:02.818Z,15
2023-03-04T09:24:02.623Z,15
2023-03-04T09:25:02.616Z,15
2023-03-04T09:26:02.726Z,15
2023-03-04T09:27:02.702Z,15
2023-03-04T09:28:02.601Z,15
2023-03-04T09:29:02.983Z,15
2023-03-04T09:30:02.401Z,15
2023-03-04T09:31:02.782Z,15
2023-03-04T09:32:02.055Z,15
2023-03-04T09:33:02.192Z,15
2023-03-04T09:34:02.348Z,15
2023-03-04T09:35:02.423Z,15
2023-03-04T09:36:02.295Z,15
2023-03-04T09:37:02.525Z,15
2023-03-04T09:38:02.722Z,15
2023-03-04T09:39:02.455Z,15
2023-03-04T09:40:02.815Z,15
2023-03-04T09:41:02.818Z,15
2023-03-04T09:42:02.801Z,15
2023-03-04T09:43:02.383Z,15
2023-03-04T09:44:02.360Z,15
2023-03-04T09:45:02.548Z,15
2023-03-04T09:46:02.968Z,15
2023-03-04T09:47:02.034Z,15
2023-03-04T09:48:02.456Z,15
2023-03-04T09:49:02.614Z,15
2023-03-04T09:50:02.339Z,15
2023-03-04T09:51:02.086Z,15
2023-03-04T09:52:02.512Z,15
2023-03-04T09:53:02.138Z,15
2023-03-04T09:54:02.523Z,15
2023-03-04T09:55:04.667Z,15
2023-03-04T09:56:02.688Z,15
2023-03-04T09:57:02.720Z,14
2023-03-04T09:58:02.494Z,15
2023-03-04T09:59:02.760Z,15
2023-03-04T10:00:02.742Z,14
2023-03-04T10:01:05.132Z,15
2023-03-04T10:02:02.884Z,15
2023-03-04T10:03:02.532Z,14
2023-03-04T10:04:02.926Z,15
2023-03-04T10:05:02.940Z,15
2023-03-04T10:06:02.670Z,14
2023-03-04T10:07:01.613Z,14
2023-03-04T10:08:01.733Z,14
2023-03-04T10:09:01.759Z,14
2023-03-04T10:10:01.744Z,14
2023-03-04T10:11:02.211Z,14
2023-03-04T10:12:02.122Z,14
2023-03-04T10:13:02.013Z,13
2023-03-04T10:14:02.186Z,14
2023-03-04T10:15:02.409Z,14
2023-03-04T10:16:02.352Z,13
2023-03-04T10:17:02.745Z,12
2023-03-04T10:18:02.837Z,12
2023-03-04T10:19:02.767Z,12
2023-03-04T10:20:02.554Z,12
2023-03-04T10:21:02.648Z,11
2023-03-04T10:22:01.754Z,11
2023-03-04T10:23:01.667Z,11
2023-03-04T10:24:01.818Z,11
2023-03-04T10:25:01.887Z,11
2023-03-04T10:26:01.781Z,10
2023-03-04T10:27:01.899Z,11
2023-03-04T10:28:01.887Z,10
2023-03-04T10:29:02.196Z,10
2023-03-04T10:30:02.013Z,10
2023-03-04T10:31:01.809Z,9
2023-03-04T10:32:01.687Z,10
2023-03-04T10:33:01.997Z,9
2023-03-04T10:34:01.507Z,9
2023-03-04T10:35:01.871Z,9
2023-03-04T10:36:01.891Z,9
2023-03-04T10:37:01.705Z,8
2023-03-04T10:38:01.590Z,8
2023-03-04T10:39:01.864Z,8
2023-03-04T10:40:01.487Z,8
2023-03-04T10:41:01.578Z,8
2023-03-04T10:42:02.151Z,8
2023-03-04T10:43:02.086Z,7
2023-03-04T10:44:02.076Z,7
2023-03-04T10:45:01.858Z,7
2023-03-04T10:46:02.271Z,8
2023-03-04T10:47:02.132Z,7
2023-03-04T10:48:02.714Z,7
2023-03-04T10:49:02.411Z,7
2023-03-04T10:50:02.476Z,7
2023-03-04T10:51:02.647Z,7
2023-03-04T10:52:02.359Z,6
2023-03-04T10:53:02.704Z,6
2023-03-04T10:54:02.789Z,6
2023-03-04T10:55:02.577Z,6
2023-03-04T10:56:02.478Z,6
2023-03-04T10:57:01.770Z,6
2023-03-04T10:58:01.734Z,6
2023-03-04T10:59:01.765Z,6
2023-03-04T11:00:01.928Z,6
2023-03-04T11:01:01.747Z,6
2023-03-04T11:02:02.089Z,5
2023-03-04T11:03:02.089Z,6
2023-03-04T11:04:02.045Z,5
2023-03-04T11:05:02.286Z,6
2023-03-04T11:06:01.928Z,6
2023-03-04T11:07:02.584Z,5
2023-03-04T11:08:02.544Z,6
2023-03-04T11:09:02.772Z,5
2023-03-04T11:10:02.438Z,5
2023-03-04T11:11:02.748Z,5
2023-03-04T11:12:02.884Z,5
2023-03-04T11:13:03.267Z,5
2023-03-04T11:14:02.975Z,5
2023-03-04T11:15:02.924Z,6
2023-03-04T11:16:02.919Z,5
2023-03-04T11:17:01.838Z,5
2023-03-04T11:18:01.830Z,5
2023-03-04T11:19:01.684Z,5
2023-03-04T11:20:02.306Z,4
2023-03-04T11:21:02.015Z,4
2023-03-04T11:22:02.274Z,5
2023-03-04T11:23:04.479Z,5
2023-03-04T11:24:02.341Z,4
2023-03-04T11:25:02.552Z,4
2023-03-04T11:26:02.438Z,4
2023-03-04T11:27:02.394Z,5
2023-03-04T11:28:02.635Z,4
2023-03-04T11:29:02.398Z,4
2023-03-04T11:30:02.416Z,4
2023-03-04T11:31:02.713Z,4
2023-03-04T11:32:02.862Z,4
2023-03-04T11:33:02.690Z,4
2023-03-04T11:34:02.648Z,4
2023-03-04T11:35:02.921Z,4
2023-03-04T11:36:02.867Z,4
2023-03-04T11:37:02.233Z,4
2023-03-04T11:38:02.478Z,4
2023-03-04T11:39:01.977Z,4
2023-03-04T11:40:02.427Z,4
2023-03-04T11:41:02.433Z,4
2023-03-04T11:42:02.789Z,4
2023-03-04T11:43:02.724Z,4
2023-03-04T11:44:02.660Z,3
2023-03-04T11:45:02.506Z,4
2023-03-04T11:46:03.129Z,4
2023-03-04T11:47:02.555Z,3
2023-03-04T11:48:02.456Z,3
2023-03-04T11:49:02.733Z,4
2023-03-04T11:50:02.754Z,4
2023-03-04T11:51:02.248Z,3
2023-03-04T11:52:02.073Z,3
2023-03-04T11:53:01.862Z,4
2023-03-04T11:54:01.734Z,4
2023-03-04T11:55:02.048Z,3
2023-03-04T11:56:01.643Z,3
2023-03-04T11:57:02.488Z,4
2023-03-04T11:58:02.580Z,3
2023-03-04T11:59:02.457Z,3
2023-03-04T12:00:02.506Z,3
2023-03-04T12:01:02.630Z,3
2023-03-04T12:02:03.338Z,3
2023-03-04T12:03:03.507Z,3
2023-03-04T12:04:03.654Z,3
2023-03-04T12:05:03.628Z,3
2023-03-04T12:06:03.659Z,3
2023-03-04T12:07:02.713Z,3
2023-03-04T12:08:02.612Z,3
2023-03-04T12:09:02.805Z,3
2023-03-04T12:10:02.917Z,3
2023-03-04T12:11:02.568Z,3
2023-03-04T12:12:03.129Z,3
2023-03-04T12:13:03.151Z,3
2023-03-04T12:14:02.953Z,3
2023-03-04T12:15:02.816Z,3
2023-03-04T12:16:02.794Z,3
2023-03-04T12:17:03.141Z,3
2023-03-04T12:18:02.921Z,3
2023-03-04T12:19:02.981Z,3
2023-03-04T12:20:02.978Z,3
2023-03-04T12:21:03.251Z,2
2023-03-04T12:22:02.816Z,3
2023-03-04T12:23:02.699Z,3
2023-03-04T12:24:02.347Z,3
2023-03-04T12:25:02.802Z,3
2023-03-04T12:26:02.540Z,2
2023-03-04T12:27:03.066Z,3
2023-03-04T12:28:02.830Z,3
2023-03-04T12:29:03.202Z,3
2023-03-04T12:30:02.995Z,3
2023-03-04T12:31:03.001Z,3
2023-03-04T12:32:03.610Z,3
2023-03-04T12:33:03.351Z,3
2023-03-04T12:34:03.339Z,3
2023-03-04T12:35:03.335Z,2
2023-03-04T12:36:03.512Z,3
2023-03-04T12:37:03.592Z,2
2023-03-04T12:38:03.224Z,3
2023-03-04T12:39:03.231Z,3
2023-03-04T12:40:03.210Z,2
2023-03-04T12:41:03.447Z,3
2023-03-04T12:42:02.728Z,3
2023-03-04T12:43:02.456Z,3
2023-03-04T12:44:02.457Z,2
2023-03-04T12:45:02.745Z,3
2023-03-04T12:46:02.791Z,2
2023-03-04T12:47:02.923Z,3
2023-03-04T12:48:02.908Z,2
2023-03-04T12:49:02.819Z,3
2023-03-04T12:50:02.550Z,3
2023-03-04T12:51:02.813Z,3
2023-03-04T12:52:03.080Z,2
2023-03-04T12:53:02.690Z,2
2023-03-04T12:54:02.544Z,2
2023-03-04T12:55:02.998Z,2
2023-03-04T12:56:02.622Z,2
2023-03-04T12:57:03.148Z,2
2023-03-04T12:58:02.682Z,3
2023-03-04T12:59:03.219Z,2
2023-03-04T13:00:02.677Z,2
2023-03-04T13:01:02.798Z,2
2023-03-04T13:02:04.997Z,2
2023-03-04T13:03:02.578Z,2
2023-03-04T13:04:02.332Z,2
2023-03-04T13:05:02.186Z,3
2023-03-04T13:06:02.094Z,2
2023-03-04T13:07:02.920Z,2
2023-03-04T13:08:02.680Z,2
2023-03-04T13:09:02.448Z,2
2023-03-04T13:10:02.457Z,2
2023-03-04T13:11:02.786Z,2
2023-03-04T13:12:01.575Z,2
2023-03-04T13:13:01.857Z,2
2023-03-04T13:14:01.653Z,2
2023-03-04T13:15:01.593Z,2
2023-03-04T13:16:02.241Z,3
2023-03-04T13:17:02.276Z,2
2023-03-04T13:18:02.782Z,2
2023-03-04T13:19:02.602Z,2
2023-03-04T13:20:02.858Z,2
2023-03-04T13:21:02.495Z,2
2023-03-04T13:22:02.658Z,2
2023-03-04T13:23:01.977Z,2
2023-03-04T13:24:02.246Z,2
2023-03-04T13:25:01.884Z,2
2023-03-04T13:26:01.916Z,2
2023-03-04T13:27:01.707Z,2
2023-03-04T13:28:02.231Z,2
2023-03-04T13:29:02.143Z,2
2023-03-04T13:30:02.130Z,2
2023-03-04T13:31:02.315Z,2
2023-03-04T13:32:02.379Z,2
2023-03-04T13:33:01.785Z,2
2023-03-04T13:34:01.826Z,2
2023-03-04T13:35:01.787Z,2
2023-03-04T13:36:01.578Z,2
2023-03-04T13:37:01.932Z,2
2023-03-04T13:38:04.832Z,2
2023-03-04T13:39:01.993Z,2
2023-03-04T13:40:01.649Z,2
2023-03-04T13:41:02.237Z,2
2023-03-04T13:42:02.283Z,2
2023-03-04T13:43:01.726Z,2
2023-03-04T13:44:02.008Z,2
2023-03-04T13:45:02.034Z,2
2023-03-04T13:46:02.378Z,2
2023-03-04T13:47:02.046Z,2
2023-03-04T13:48:02.108Z,2
2023-03-04T13:49:02.336Z,2
2023-03-04T13:50:02.103Z,2
2023-03-04T13:51:02.080Z,2
2023-03-04T13:52:02.217Z,2
2023-03-04T13:53:01.871Z,2
2023-03-04T13:54:01.986Z,2
2023-03-04T13:55:02.477Z,2
2023-03-04T13:56:02.330Z,2
2023-03-04T13:57:02.287Z,2
2023-03-04T13:58:02.051Z,2
2023-03-04T13:59:02.028Z,2
2023-03-04T14:00:02.068Z,2
2023-03-04T14:01:02.636Z,2
2023-03-04T14:02:02.290Z,2
2023-03-04T14:03:02.248Z,2
2023-03-04T14:04:02.124Z,2
2023-03-04T14:05:02.069Z,3
2023-03-04T14:06:02.295Z,2
2023-03-04T14:07:02.382Z,2
2023-03-04T14:08:02.079Z,2
2023-03-04T14:09:02.139Z,2
2023-03-04T14:10:02.347Z,2
2023-03-04T14:11:02.315Z,2
2023-03-04T14:12:02.119Z,2
2023-03-04T14:13:02.699Z,2
2023-03-04T14:14:02.865Z,2
2023-03-04T14:15:02.899Z,2
2023-03-04T14:16:02.628Z,2
2023-03-04T14:17:03.142Z,2
2023-03-04T14:18:02.744Z,2
2023-03-04T14:19:02.709Z,2
2023-03-04T14:20:02.815Z,2
2023-03-04T14:21:02.856Z,2
2023-03-04T14:22:03.230Z,3
2023-03-04T14:23:02.734Z,2